sensor_id;sensor_type;location;lat;lon;timestamp;P1;durP1;ratioP1;P2;durP2;ratioP2
60344;SDS011;46188;52.324;8.032;2022-12-11T00:00:44;81.68;;;29.60;;
60344;SDS011;46188;52.324;8.032;2022-12-11T00:03:10;86.30;;;30.27;;
60344;SDS011;46188;52.324;8.032;2022-12-11T00:05:37;87.93;;;30.02;;
60344;SDS011;46188;52.324;8.032;2022-12-11T00:08:04;85.55;;;29.10;;
60344;SDS011;46188;52.324;8.032;2022-12-11T00:10:29;104.00;;;29.92;;
60344;SDS011;46188;52.324;8.032;2022-12-11T00:12:55;77.13;;;26.80;;
60344;SDS011;46188;52.324;8.032;2022-12-11T00:15:20;86.22;;;28.05;;
60344;SDS011;46188;52.324;8.032;2022-12-11T00:17:45;94.53;;;29.70;;
60344;SDS011;46188;52.324;8.032;2022-12-11T00:20:11;85.45;;;29.42;;
60344;SDS011;46188;52.324;8.032;2022-12-11T00:22:36;89.47;;;28.92;;
60344;SDS011;46188;52.324;8.032;2022-12-11T00:25:02;93.45;;;31.13;;
60344;SDS011;46188;52.324;8.032;2022-12-11T00:27:27;102.80;;;30.70;;
60344;SDS011;46188;52.324;8.032;2022-12-11T00:29:53;84.97;;;27.88;;
60344;SDS011;46188;52.324;8.032;2022-12-11T00:32:19;96.32;;;31.95;;
60344;SDS011;46188;52.324;8.032;2022-12-11T00:34:44;99.82;;;31.95;;
60344;SDS011;46188;52.324;8.032;2022-12-11T00:37:09;98.80;;;31.75;;
60344;SDS011;46188;52.324;8.032;2022-12-11T00:39:36;85.70;;;30.42;;
60344;SDS011;46188;52.324;8.032;2022-12-11T00:42:01;92.78;;;30.38;;
60344;SDS011;46188;52.324;8.032;2022-12-11T00:44:27;90.40;;;30.45;;
60344;SDS011;46188;52.324;8.032;2022-12-11T00:46:52;89.93;;;29.65;;
60344;SDS011;46188;52.324;8.032;2022-12-11T00:49:18;100.68;;;31.35;;
60344;SDS011;46188;52.324;8.032;2022-12-11T00:51:43;89.75;;;30.02;;
60344;SDS011;46188;52.324;8.032;2022-12-11T00:54:08;94.18;;;30.70;;
60344;SDS011;46188;52.324;8.032;2022-12-11T00:56:34;99.00;;;32.40;;
60344;SDS011;46188;52.324;8.032;2022-12-11T00:58:59;106.22;;;30.83;;
60344;SDS011;46188;52.324;8.032;2022-12-11T01:01:25;99.50;;;30.92;;
60344;SDS011;46188;52.324;8.032;2022-12-11T01:03:51;98.90;;;30.33;;
60344;SDS011;46188;52.324;8.032;2022-12-11T01:06:21;98.45;;;30.58;;
60344;SDS011;46188;52.324;8.032;2022-12-11T01:08:48;82.07;;;26.25;;
60344;SDS011;46188;52.324;8.032;2022-12-11T01:11:34;91.43;;;28.30;;
60344;SDS011;46188;52.324;8.032;2022-12-11T01:13:59;87.60;;;26.88;;
60344;SDS011;46188;52.324;8.032;2022-12-11T01:16:25;83.38;;;24.65;;
60344;SDS011;46188;52.324;8.032;2022-12-11T01:18:50;79.72;;;23.95;;
60344;SDS011;46188;52.324;8.032;2022-12-11T01:21:15;79.68;;;24.63;;
60344;SDS011;46188;52.324;8.032;2022-12-11T01:23:41;73.82;;;25.42;;
60344;SDS011;46188;52.324;8.032;2022-12-11T01:26:07;61.05;;;21.30;;
60344;SDS011;46188;52.324;8.032;2022-12-11T01:28:34;75.50;;;24.02;;
60344;SDS011;46188;52.324;8.032;2022-12-11T01:30:59;70.15;;;23.73;;
60344;SDS011;46188;52.324;8.032;2022-12-11T01:33:25;67.25;;;23.80;;
60344;SDS011;46188;52.324;8.032;2022-12-11T01:35:51;67.32;;;22.50;;
60344;SDS011;46188;52.324;8.032;2022-12-11T01:38:16;85.65;;;26.40;;
60344;SDS011;46188;52.324;8.032;2022-12-11T01:40:48;83.25;;;26.10;;
60344;SDS011;46188;52.324;8.032;2022-12-11T01:43:15;91.78;;;26.88;;
60344;SDS011;46188;52.324;8.032;2022-12-11T01:45:42;87.30;;;25.27;;
60344;SDS011;46188;52.324;8.032;2022-12-11T01:48:12;79.65;;;24.75;;
60344;SDS011;46188;52.324;8.032;2022-12-11T01:50:41;71.50;;;21.75;;
60344;SDS011;46188;52.324;8.032;2022-12-11T01:53:12;81.60;;;24.15;;
60344;SDS011;46188;52.324;8.032;2022-12-11T01:55:42;74.75;;;20.88;;
60344;SDS011;46188;52.324;8.032;2022-12-11T01:58:10;76.80;;;22.50;;
60344;SDS011;46188;52.324;8.032;2022-12-11T02:00:37;78.85;;;23.85;;
60344;SDS011;46188;52.324;8.032;2022-12-11T02:03:02;69.47;;;20.92;;
60344;SDS011;46188;52.324;8.032;2022-12-11T02:05:28;79.50;;;22.35;;
60344;SDS011;46188;52.324;8.032;2022-12-11T02:07:55;69.95;;;20.92;;
60344;SDS011;46188;52.324;8.032;2022-12-11T02:10:27;77.97;;;23.50;;
60344;SDS011;46188;52.324;8.032;2022-12-11T02:13:03;67.68;;;20.35;;
60344;SDS011;46188;52.324;8.032;2022-12-11T02:21:06;63.33;;;19.83;;
60344;SDS011;46188;52.324;8.032;2022-12-11T02:23:41;72.03;;;21.15;;
60344;SDS011;46188;52.324;8.032;2022-12-11T02:30:05;72.90;;;21.80;;
60344;SDS011;46188;52.324;8.032;2022-12-11T02:32:18;76.47;;;24.70;;
60344;SDS011;46188;52.324;8.032;2022-12-11T02:34:52;79.85;;;22.27;;
60344;SDS011;46188;52.324;8.032;2022-12-11T02:37:24;78.63;;;23.50;;
60344;SDS011;46188;52.324;8.032;2022-12-11T02:39:53;75.05;;;23.25;;
60344;SDS011;46188;52.324;8.032;2022-12-11T02:42:20;68.20;;;20.45;;
60344;SDS011;46188;52.324;8.032;2022-12-11T02:44:50;67.55;;;20.13;;
60344;SDS011;46188;52.324;8.032;2022-12-11T02:47:17;67.40;;;20.45;;
60344;SDS011;46188;52.324;8.032;2022-12-11T02:49:45;67.20;;;19.05;;
60344;SDS011;46188;52.324;8.032;2022-12-11T02:52:13;66.35;;;19.65;;
60344;SDS011;46188;52.324;8.032;2022-12-11T02:54:43;74.50;;;20.75;;
60344;SDS011;46188;52.324;8.032;2022-12-11T02:57:15;67.55;;;19.50;;
60344;SDS011;46188;52.324;8.032;2022-12-11T02:59:47;67.60;;;19.38;;
60344;SDS011;46188;52.324;8.032;2022-12-11T03:02:13;54.42;;;18.33;;
60344;SDS011;46188;52.324;8.032;2022-12-11T03:04:41;56.72;;;17.42;;
60344;SDS011;46188;52.324;8.032;2022-12-11T03:07:08;54.00;;;17.40;;
60344;SDS011;46188;52.324;8.032;2022-12-11T03:09:38;55.20;;;17.88;;
60344;SDS011;46188;52.324;8.032;2022-12-11T03:12:05;59.47;;;17.92;;
60344;SDS011;46188;52.324;8.032;2022-12-11T03:14:36;52.10;;;17.20;;
60344;SDS011;46188;52.324;8.032;2022-12-11T03:17:14;57.80;;;18.48;;
60344;SDS011;46188;52.324;8.032;2022-12-11T03:25:46;58.08;;;15.73;;
60344;SDS011;46188;52.324;8.032;2022-12-11T03:28:22;55.38;;;16.73;;
60344;SDS011;46188;52.324;8.032;2022-12-11T03:30:54;56.78;;;17.52;;
60344;SDS011;46188;52.324;8.032;2022-12-11T03:33:22;51.92;;;16.45;;
60344;SDS011;46188;52.324;8.032;2022-12-11T03:36:09;48.45;;;15.23;;
60344;SDS011;46188;52.324;8.032;2022-12-11T03:38:43;48.58;;;14.23;;
60344;SDS011;46188;52.324;8.032;2022-12-11T03:41:13;54.83;;;16.17;;
60344;SDS011;46188;52.324;8.032;2022-12-11T03:43:41;43.80;;;15.80;;
60344;SDS011;46188;52.324;8.032;2022-12-11T03:46:08;50.55;;;15.95;;
60344;SDS011;46188;52.324;8.032;2022-12-11T03:48:37;49.22;;;15.63;;
60344;SDS011;46188;52.324;8.032;2022-12-11T03:51:06;52.42;;;16.55;;
60344;SDS011;46188;52.324;8.032;2022-12-11T03:53:33;47.65;;;16.02;;
60344;SDS011;46188;52.324;8.032;2022-12-11T03:56:00;49.95;;;16.33;;
60344;SDS011;46188;52.324;8.032;2022-12-11T03:58:28;49.75;;;16.17;;
60344;SDS011;46188;52.324;8.032;2022-12-11T04:00:54;40.50;;;14.43;;
60344;SDS011;46188;52.324;8.032;2022-12-11T04:03:19;49.80;;;15.23;;
60344;SDS011;46188;52.324;8.032;2022-12-11T04:05:46;53.83;;;16.50;;
60344;SDS011;46188;52.324;8.032;2022-12-11T04:08:13;53.15;;;16.17;;
60344;SDS011;46188;52.324;8.032;2022-12-11T04:10:40;44.85;;;14.48;;
60344;SDS011;46188;52.324;8.032;2022-12-11T04:13:06;51.58;;;15.07;;
60344;SDS011;46188;52.324;8.032;2022-12-11T04:15:32;48.40;;;14.35;;
60344;SDS011;46188;52.324;8.032;2022-12-11T04:17:58;43.30;;;14.07;;
60344;SDS011;46188;52.324;8.032;2022-12-11T04:20:42;44.13;;;14.30;;
60344;SDS011;46188;52.324;8.032;2022-12-11T04:23:26;44.38;;;14.30;;
60344;SDS011;46188;52.324;8.032;2022-12-11T04:26:13;29.05;;;13.20;;
60344;SDS011;46188;52.324;8.032;2022-12-11T04:28:41;43.17;;;14.48;;
60344;SDS011;46188;52.324;8.032;2022-12-11T04:31:11;35.60;;;13.40;;
60344;SDS011;46188;52.324;8.032;2022-12-11T04:33:46;37.58;;;12.90;;
60344;SDS011;46188;52.324;8.032;2022-12-11T04:36:12;38.47;;;13.95;;
60344;SDS011;46188;52.324;8.032;2022-12-11T04:38:38;42.40;;;14.18;;
60344;SDS011;46188;52.324;8.032;2022-12-11T04:41:05;36.58;;;13.07;;
60344;SDS011;46188;52.324;8.032;2022-12-11T04:43:36;45.30;;;13.95;;
60344;SDS011;46188;52.324;8.032;2022-12-11T04:46:12;39.55;;;13.93;;
60344;SDS011;46188;52.324;8.032;2022-12-11T04:48:43;49.08;;;15.20;;
60344;SDS011;46188;52.324;8.032;2022-12-11T04:51:09;43.95;;;14.23;;
60344;SDS011;46188;52.324;8.032;2022-12-11T04:53:35;46.35;;;14.95;;
60344;SDS011;46188;52.324;8.032;2022-12-11T04:56:03;44.92;;;14.55;;
60344;SDS011;46188;52.324;8.032;2022-12-11T04:58:30;48.58;;;15.52;;
60344;SDS011;46188;52.324;8.032;2022-12-11T05:00:56;46.72;;;15.25;;
60344;SDS011;46188;52.324;8.032;2022-12-11T05:03:21;47.92;;;15.30;;
60344;SDS011;46188;52.324;8.032;2022-12-11T05:05:50;43.40;;;15.48;;
60344;SDS011;46188;52.324;8.032;2022-12-11T05:08:17;46.78;;;14.32;;
60344;SDS011;46188;52.324;8.032;2022-12-11T05:10:44;47.88;;;14.93;;
60344;SDS011;46188;52.324;8.032;2022-12-11T05:13:09;38.08;;;16.20;;
60344;SDS011;46188;52.324;8.032;2022-12-11T05:15:37;47.38;;;14.40;;
60344;SDS011;46188;52.324;8.032;2022-12-11T05:18:03;45.13;;;15.90;;
60344;SDS011;46188;52.324;8.032;2022-12-11T05:20:28;48.47;;;16.17;;
60344;SDS011;46188;52.324;8.032;2022-12-11T05:22:54;50.03;;;15.75;;
60344;SDS011;46188;52.324;8.032;2022-12-11T05:25:19;47.80;;;14.55;;
60344;SDS011;46188;52.324;8.032;2022-12-11T05:27:45;42.95;;;16.08;;
60344;SDS011;46188;52.324;8.032;2022-12-11T05:30:10;43.67;;;13.40;;
60344;SDS011;46188;52.324;8.032;2022-12-11T05:32:36;39.30;;;12.63;;
60344;SDS011;46188;52.324;8.032;2022-12-11T05:35:01;50.08;;;14.35;;
60344;SDS011;46188;52.324;8.032;2022-12-11T05:37:27;44.33;;;14.27;;
60344;SDS011;46188;52.324;8.032;2022-12-11T05:39:53;41.95;;;14.48;;
60344;SDS011;46188;52.324;8.032;2022-12-11T05:42:19;40.80;;;14.25;;
60344;SDS011;46188;52.324;8.032;2022-12-11T05:44:44;38.83;;;13.25;;
60344;SDS011;46188;52.324;8.032;2022-12-11T05:47:10;40.25;;;13.88;;
60344;SDS011;46188;52.324;8.032;2022-12-11T05:49:35;46.45;;;14.02;;
60344;SDS011;46188;52.324;8.032;2022-12-11T05:52:01;42.10;;;13.13;;
60344;SDS011;46188;52.324;8.032;2022-12-11T05:54:26;42.75;;;13.77;;
60344;SDS011;46188;52.324;8.032;2022-12-11T05:56:52;34.08;;;13.05;;
60344;SDS011;46188;52.324;8.032;2022-12-11T05:59:17;38.97;;;12.57;;
60344;SDS011;46188;52.324;8.032;2022-12-11T06:01:43;39.03;;;13.35;;
60344;SDS011;46188;52.324;8.032;2022-12-11T06:04:10;38.28;;;12.00;;
60344;SDS011;46188;52.324;8.032;2022-12-11T06:06:36;38.25;;;13.52;;
60344;SDS011;46188;52.324;8.032;2022-12-11T06:09:02;35.47;;;12.82;;
60344;SDS011;46188;52.324;8.032;2022-12-11T06:11:29;31.00;;;11.95;;
60344;SDS011;46188;52.324;8.032;2022-12-11T06:13:56;31.67;;;11.73;;
60344;SDS011;46188;52.324;8.032;2022-12-11T06:16:22;31.63;;;11.98;;
60344;SDS011;46188;52.324;8.032;2022-12-11T06:18:48;33.28;;;11.80;;
60344;SDS011;46188;52.324;8.032;2022-12-11T06:21:16;32.20;;;11.30;;
60344;SDS011;46188;52.324;8.032;2022-12-11T06:23:44;26.20;;;11.38;;
60344;SDS011;46188;52.324;8.032;2022-12-11T06:26:11;30.00;;;10.82;;
60344;SDS011;46188;52.324;8.032;2022-12-11T06:28:37;25.90;;;10.15;;
60344;SDS011;46188;52.324;8.032;2022-12-11T06:31:03;28.10;;;9.65;;
60344;SDS011;46188;52.324;8.032;2022-12-11T06:33:29;28.88;;;9.40;;
60344;SDS011;46188;52.324;8.032;2022-12-11T06:35:54;31.23;;;11.27;;
60344;SDS011;46188;52.324;8.032;2022-12-11T06:38:20;31.73;;;11.48;;
60344;SDS011;46188;52.324;8.032;2022-12-11T06:40:53;25.50;;;10.73;;
60344;SDS011;46188;52.324;8.032;2022-12-11T06:43:20;22.42;;;10.45;;
60344;SDS011;46188;52.324;8.032;2022-12-11T06:45:45;32.55;;;12.10;;
60344;SDS011;46188;52.324;8.032;2022-12-11T06:48:11;24.70;;;9.52;;
60344;SDS011;46188;52.324;8.032;2022-12-11T06:50:37;29.15;;;10.45;;
60344;SDS011;46188;52.324;8.032;2022-12-11T06:53:02;29.15;;;11.88;;
60344;SDS011;46188;52.324;8.032;2022-12-11T06:55:28;27.65;;;10.95;;
60344;SDS011;46188;52.324;8.032;2022-12-11T06:57:53;32.13;;;11.75;;
60344;SDS011;46188;52.324;8.032;2022-12-11T07:00:19;32.40;;;9.80;;
60344;SDS011;46188;52.324;8.032;2022-12-11T07:02:44;34.20;;;12.48;;
60344;SDS011;46188;52.324;8.032;2022-12-11T07:05:10;34.08;;;10.95;;
60344;SDS011;46188;52.324;8.032;2022-12-11T07:07:35;27.52;;;10.57;;
60344;SDS011;46188;52.324;8.032;2022-12-11T07:10:01;31.48;;;11.30;;
60344;SDS011;46188;52.324;8.032;2022-12-11T07:12:26;29.85;;;11.00;;
60344;SDS011;46188;52.324;8.032;2022-12-11T07:14:52;32.17;;;11.43;;
60344;SDS011;46188;52.324;8.032;2022-12-11T07:17:17;32.55;;;11.50;;
60344;SDS011;46188;52.324;8.032;2022-12-11T07:19:43;27.77;;;11.45;;
60344;SDS011;46188;52.324;8.032;2022-12-11T07:22:08;32.03;;;10.65;;
60344;SDS011;46188;52.324;8.032;2022-12-11T07:24:34;28.13;;;12.07;;
60344;SDS011;46188;52.324;8.032;2022-12-11T07:26:59;26.67;;;10.15;;
60344;SDS011;46188;52.324;8.032;2022-12-11T07:29:24;33.47;;;11.55;;
60344;SDS011;46188;52.324;8.032;2022-12-11T07:31:50;24.27;;;10.32;;
60344;SDS011;46188;52.324;8.032;2022-12-11T07:34:15;24.63;;;10.57;;
60344;SDS011;46188;52.324;8.032;2022-12-11T07:36:41;29.23;;;11.13;;
60344;SDS011;46188;52.324;8.032;2022-12-11T07:39:07;29.65;;;11.52;;
60344;SDS011;46188;52.324;8.032;2022-12-11T07:41:37;34.00;;;11.77;;
60344;SDS011;46188;52.324;8.032;2022-12-11T07:44:04;31.65;;;11.73;;
60344;SDS011;46188;52.324;8.032;2022-12-11T07:46:30;33.38;;;12.98;;
60344;SDS011;46188;52.324;8.032;2022-12-11T07:48:57;28.23;;;11.45;;
60344;SDS011;46188;52.324;8.032;2022-12-11T07:51:32;29.30;;;12.30;;
60344;SDS011;46188;52.324;8.032;2022-12-11T07:54:00;28.52;;;11.07;;
60344;SDS011;46188;52.324;8.032;2022-12-11T07:56:29;30.00;;;11.73;;
60344;SDS011;46188;52.324;8.032;2022-12-11T07:58:57;32.67;;;11.27;;
60344;SDS011;46188;52.324;8.032;2022-12-11T08:01:25;25.27;;;9.35;;
60344;SDS011;46188;52.324;8.032;2022-12-11T08:03:52;26.65;;;9.60;;
60344;SDS011;46188;52.324;8.032;2022-12-11T08:06:18;23.20;;;10.18;;
60344;SDS011;46188;52.324;8.032;2022-12-11T08:08:48;29.75;;;10.48;;
60344;SDS011;46188;52.324;8.032;2022-12-11T08:11:14;30.25;;;10.02;;
60344;SDS011;46188;52.324;8.032;2022-12-11T08:13:40;21.17;;;8.07;;
60344;SDS011;46188;52.324;8.032;2022-12-11T08:16:09;16.92;;;6.57;;
60344;SDS011;46188;52.324;8.032;2022-12-11T08:18:37;14.60;;;6.97;;
60344;SDS011;46188;52.324;8.032;2022-12-11T08:21:06;16.25;;;7.38;;
60344;SDS011;46188;52.324;8.032;2022-12-11T08:23:36;20.10;;;7.95;;
60344;SDS011;46188;52.324;8.032;2022-12-11T08:26:05;14.68;;;7.43;;
60344;SDS011;46188;52.324;8.032;2022-12-11T08:28:33;16.17;;;7.13;;
60344;SDS011;46188;52.324;8.032;2022-12-11T08:30:59;17.45;;;8.30;;
60344;SDS011;46188;52.324;8.032;2022-12-11T08:33:27;18.48;;;7.50;;
60344;SDS011;46188;52.324;8.032;2022-12-11T08:35:52;19.02;;;7.43;;
60344;SDS011;46188;52.324;8.032;2022-12-11T08:38:18;15.90;;;7.00;;
60344;SDS011;46188;52.324;8.032;2022-12-11T08:40:43;16.42;;;7.18;;
60344;SDS011;46188;52.324;8.032;2022-12-11T08:43:09;20.35;;;8.73;;
60344;SDS011;46188;52.324;8.032;2022-12-11T08:45:34;21.75;;;8.05;;
60344;SDS011;46188;52.324;8.032;2022-12-11T08:48:00;14.90;;;6.88;;
60344;SDS011;46188;52.324;8.032;2022-12-11T08:50:25;18.05;;;7.00;;
60344;SDS011;46188;52.324;8.032;2022-12-11T08:52:51;15.68;;;7.10;;
60344;SDS011;46188;52.324;8.032;2022-12-11T08:55:17;20.02;;;7.70;;
60344;SDS011;46188;52.324;8.032;2022-12-11T08:57:43;13.77;;;6.15;;
60344;SDS011;46188;52.324;8.032;2022-12-11T09:00:10;17.67;;;7.22;;
60344;SDS011;46188;52.324;8.032;2022-12-11T09:02:36;16.08;;;6.32;;
60344;SDS011;46188;52.324;8.032;2022-12-11T09:05:02;15.60;;;6.80;;
60344;SDS011;46188;52.324;8.032;2022-12-11T09:07:31;21.27;;;7.97;;
60344;SDS011;46188;52.324;8.032;2022-12-11T09:10:01;20.63;;;8.30;;
60344;SDS011;46188;52.324;8.032;2022-12-11T09:12:27;16.40;;;7.05;;
60344;SDS011;46188;52.324;8.032;2022-12-11T09:14:53;22.00;;;7.47;;
60344;SDS011;46188;52.324;8.032;2022-12-11T09:17:19;14.70;;;6.93;;
60344;SDS011;46188;52.324;8.032;2022-12-11T09:19:44;18.23;;;7.43;;
60344;SDS011;46188;52.324;8.032;2022-12-11T09:22:10;18.13;;;8.07;;
60344;SDS011;46188;52.324;8.032;2022-12-11T09:24:36;22.85;;;9.02;;
60344;SDS011;46188;52.324;8.032;2022-12-11T09:27:03;21.10;;;7.72;;
60344;SDS011;46188;52.324;8.032;2022-12-11T09:29:29;21.55;;;8.68;;
60344;SDS011;46188;52.324;8.032;2022-12-11T09:31:54;21.27;;;8.40;;
60344;SDS011;46188;52.324;8.032;2022-12-11T09:34:20;20.15;;;8.80;;
60344;SDS011;46188;52.324;8.032;2022-12-11T09:36:46;19.67;;;8.23;;
60344;SDS011;46188;52.324;8.032;2022-12-11T09:39:12;22.20;;;8.35;;
60344;SDS011;46188;52.324;8.032;2022-12-11T09:46:42;24.23;;;8.25;;
60344;SDS011;46188;52.324;8.032;2022-12-11T09:55:16;20.67;;;8.35;;
60344;SDS011;46188;52.324;8.032;2022-12-11T10:00:20;25.80;;;9.48;;
60344;SDS011;46188;52.324;8.032;2022-12-11T10:02:59;23.83;;;9.18;;
60344;SDS011;46188;52.324;8.032;2022-12-11T10:16:44;20.88;;;9.38;;
60344;SDS011;46188;52.324;8.032;2022-12-11T10:19:17;22.20;;;7.82;;
60344;SDS011;46188;52.324;8.032;2022-12-11T10:21:46;24.27;;;9.60;;
60344;SDS011;46188;52.324;8.032;2022-12-11T10:27:12;24.13;;;9.48;;
60344;SDS011;46188;52.324;8.032;2022-12-11T10:29:41;21.60;;;8.18;;
60344;SDS011;46188;52.324;8.032;2022-12-11T10:32:10;19.13;;;7.43;;
60344;SDS011;46188;52.324;8.032;2022-12-11T10:34:45;20.13;;;8.15;;
60344;SDS011;46188;52.324;8.032;2022-12-11T10:37:15;18.80;;;8.52;;
60344;SDS011;46188;52.324;8.032;2022-12-11T10:39:40;19.05;;;8.52;;
60344;SDS011;46188;52.324;8.032;2022-12-11T10:42:15;18.67;;;8.18;;
60344;SDS011;46188;52.324;8.032;2022-12-11T10:44:53;23.83;;;8.23;;
60344;SDS011;46188;52.324;8.032;2022-12-11T10:47:20;19.52;;;8.27;;
60344;SDS011;46188;52.324;8.032;2022-12-11T10:49:56;21.25;;;8.57;;
60344;SDS011;46188;52.324;8.032;2022-12-11T10:55:07;22.90;;;8.82;;
60344;SDS011;46188;52.324;8.032;2022-12-11T10:57:45;20.90;;;8.75;;
60344;SDS011;46188;52.324;8.032;2022-12-11T11:02:56;18.95;;;8.57;;
60344;SDS011;46188;52.324;8.032;2022-12-11T11:05:26;21.75;;;9.02;;
60344;SDS011;46188;52.324;8.032;2022-12-11T11:10:28;22.42;;;9.18;;
60344;SDS011;46188;52.324;8.032;2022-12-11T11:12:54;31.00;;;10.02;;
60344;SDS011;46188;52.324;8.032;2022-12-11T11:15:26;22.23;;;8.40;;
60344;SDS011;46188;52.324;8.032;2022-12-11T11:17:53;19.98;;;8.82;;
60344;SDS011;46188;52.324;8.032;2022-12-11T11:20:21;19.77;;;7.80;;
60344;SDS011;46188;52.324;8.032;2022-12-11T11:22:53;22.27;;;10.00;;
60344;SDS011;46188;52.324;8.032;2022-12-11T11:25:22;24.60;;;9.80;;
60344;SDS011;46188;52.324;8.032;2022-12-11T11:27:51;16.90;;;8.38;;
60344;SDS011;46188;52.324;8.032;2022-12-11T11:30:32;21.77;;;9.20;;
60344;SDS011;46188;52.324;8.032;2022-12-11T11:36:00;21.67;;;8.35;;
60344;SDS011;46188;52.324;8.032;2022-12-11T11:38:29;21.67;;;9.23;;
60344;SDS011;46188;52.324;8.032;2022-12-11T11:41:39;26.33;;;10.82;;
60344;SDS011;46188;52.324;8.032;2022-12-11T11:43:50;24.60;;;11.05;;
60344;SDS011;46188;52.324;8.032;2022-12-11T11:46:53;20.77;;;9.07;;
60344;SDS011;46188;52.324;8.032;2022-12-11T11:51:50;20.63;;;8.55;;
60344;SDS011;46188;52.324;8.032;2022-12-11T11:54:34;19.98;;;9.63;;
60344;SDS011;46188;52.324;8.032;2022-12-11T11:57:10;21.15;;;9.15;;
60344;SDS011;46188;52.324;8.032;2022-12-11T11:59:50;21.90;;;8.77;;
60344;SDS011;46188;52.324;8.032;2022-12-11T12:02:20;24.05;;;9.70;;
60344;SDS011;46188;52.324;8.032;2022-12-11T12:04:45;22.33;;;9.30;;
60344;SDS011;46188;52.324;8.032;2022-12-11T12:10:01;23.50;;;10.00;;
60344;SDS011;46188;52.324;8.032;2022-12-11T12:15:28;20.27;;;8.73;;
60344;SDS011;46188;52.324;8.032;2022-12-11T12:18:58;19.42;;;8.77;;
60344;SDS011;46188;52.324;8.032;2022-12-11T12:21:08;24.52;;;9.02;;
60344;SDS011;46188;52.324;8.032;2022-12-11T12:26:35;24.05;;;9.20;;
60344;SDS011;46188;52.324;8.032;2022-12-11T12:42:52;22.75;;;9.30;;
60344;SDS011;46188;52.324;8.032;2022-12-11T12:45:52;18.35;;;8.80;;
60344;SDS011;46188;52.324;8.032;2022-12-11T12:48:35;19.35;;;8.90;;
60344;SDS011;46188;52.324;8.032;2022-12-11T12:51:00;20.48;;;8.85;;
60344;SDS011;46188;52.324;8.032;2022-12-11T12:53:29;20.75;;;8.75;;
60344;SDS011;46188;52.324;8.032;2022-12-11T12:55:58;16.55;;;8.32;;
60344;SDS011;46188;52.324;8.032;2022-12-11T13:01:17;19.38;;;8.85;;
60344;SDS011;46188;52.324;8.032;2022-12-11T13:03:53;21.10;;;8.77;;
60344;SDS011;46188;52.324;8.032;2022-12-11T13:09:08;17.52;;;8.52;;
60344;SDS011;46188;52.324;8.032;2022-12-11T13:11:45;22.40;;;10.25;;
60344;SDS011;46188;52.324;8.032;2022-12-11T13:16:43;23.70;;;10.15;;
60344;SDS011;46188;52.324;8.032;2022-12-11T13:21:57;18.40;;;9.32;;
60344;SDS011;46188;52.324;8.032;2022-12-11T13:24:29;21.65;;;9.65;;
60344;SDS011;46188;52.324;8.032;2022-12-11T13:27:06;25.80;;;10.68;;
60344;SDS011;46188;52.324;8.032;2022-12-11T13:29:46;21.60;;;10.10;;
60344;SDS011;46188;52.324;8.032;2022-12-11T13:34:40;25.73;;;10.73;;
60344;SDS011;46188;52.324;8.032;2022-12-11T13:37:23;27.77;;;14.20;;
60344;SDS011;46188;52.324;8.032;2022-12-11T13:40:01;27.33;;;11.85;;
60344;SDS011;46188;52.324;8.032;2022-12-11T13:42:31;27.10;;;11.68;;
60344;SDS011;46188;52.324;8.032;2022-12-11T13:44:59;25.00;;;10.45;;
60344;SDS011;46188;52.324;8.032;2022-12-11T13:47:26;24.88;;;11.18;;
60344;SDS011;46188;52.324;8.032;2022-12-11T13:52:51;25.42;;;11.35;;
60344;SDS011;46188;52.324;8.032;2022-12-11T13:55:23;24.02;;;11.52;;
60344;SDS011;46188;52.324;8.032;2022-12-11T13:57:50;27.70;;;12.05;;
60344;SDS011;46188;52.324;8.032;2022-12-11T14:00:23;27.67;;;12.02;;
60344;SDS011;46188;52.324;8.032;2022-12-11T14:02:50;26.63;;;11.23;;
60344;SDS011;46188;52.324;8.032;2022-12-11T14:05:18;26.23;;;10.68;;
60344;SDS011;46188;52.324;8.032;2022-12-11T14:10:17;20.88;;;10.05;;
60344;SDS011;46188;52.324;8.032;2022-12-11T14:12:50;24.30;;;9.77;;
60344;SDS011;46188;52.324;8.032;2022-12-11T14:15:21;23.35;;;10.55;;
60344;SDS011;46188;52.324;8.032;2022-12-11T14:17:47;23.38;;;10.15;;
60344;SDS011;46188;52.324;8.032;2022-12-11T14:20:51;24.00;;;10.15;;
60344;SDS011;46188;52.324;8.032;2022-12-11T14:25:31;22.77;;;10.35;;
60344;SDS011;46188;52.324;8.032;2022-12-11T14:27:57;22.92;;;10.00;;
60344;SDS011;46188;52.324;8.032;2022-12-11T14:30:29;29.45;;;10.52;;
60344;SDS011;46188;52.324;8.032;2022-12-11T14:32:58;23.50;;;9.85;;
60344;SDS011;46188;52.324;8.032;2022-12-11T14:35:31;26.65;;;10.63;;
60344;SDS011;46188;52.324;8.032;2022-12-11T14:38:00;26.45;;;10.48;;
60344;SDS011;46188;52.324;8.032;2022-12-11T14:40:37;23.38;;;10.10;;
60344;SDS011;46188;52.324;8.032;2022-12-11T14:43:07;24.98;;;11.80;;
60344;SDS011;46188;52.324;8.032;2022-12-11T14:45:38;28.75;;;11.15;;
60344;SDS011;46188;52.324;8.032;2022-12-11T14:48:24;26.80;;;11.73;;
60344;SDS011;46188;52.324;8.032;2022-12-11T14:50:56;24.02;;;9.75;;
60344;SDS011;46188;52.324;8.032;2022-12-11T14:53:31;27.05;;;10.88;;
60344;SDS011;46188;52.324;8.032;2022-12-11T14:56:04;23.48;;;10.25;;
60344;SDS011;46188;52.324;8.032;2022-12-11T14:58:31;25.63;;;10.75;;
60344;SDS011;46188;52.324;8.032;2022-12-11T15:01:03;21.73;;;10.07;;
60344;SDS011;46188;52.324;8.032;2022-12-11T15:03:37;28.52;;;11.07;;
60344;SDS011;46188;52.324;8.032;2022-12-11T15:09:16;23.40;;;10.30;;
60344;SDS011;46188;52.324;8.032;2022-12-11T15:12:15;25.45;;;10.65;;
60344;SDS011;46188;52.324;8.032;2022-12-11T15:14:49;27.00;;;11.32;;
60344;SDS011;46188;52.324;8.032;2022-12-11T15:17:27;31.70;;;11.05;;
60344;SDS011;46188;52.324;8.032;2022-12-11T15:20:00;29.02;;;10.40;;
60344;SDS011;46188;52.324;8.032;2022-12-11T15:22:31;26.05;;;11.32;;
60344;SDS011;46188;52.324;8.032;2022-12-11T15:24:56;24.23;;;10.70;;
60344;SDS011;46188;52.324;8.032;2022-12-11T15:27:31;30.05;;;12.18;;
60344;SDS011;46188;52.324;8.032;2022-12-11T15:32:44;25.73;;;10.00;;
60344;SDS011;46188;52.324;8.032;2022-12-11T15:35:23;29.02;;;11.23;;
60344;SDS011;46188;52.324;8.032;2022-12-11T15:37:51;29.27;;;10.95;;
60344;SDS011;46188;52.324;8.032;2022-12-11T15:40:21;30.42;;;12.50;;
60344;SDS011;46188;52.324;8.032;2022-12-11T15:42:47;26.27;;;11.25;;
60344;SDS011;46188;52.324;8.032;2022-12-11T15:45:17;25.80;;;10.25;;
60344;SDS011;46188;52.324;8.032;2022-12-11T15:47:46;27.20;;;12.07;;
60344;SDS011;46188;52.324;8.032;2022-12-11T15:50:22;27.30;;;11.20;;
60344;SDS011;46188;52.324;8.032;2022-12-11T15:52:50;27.23;;;9.73;;
60344;SDS011;46188;52.324;8.032;2022-12-11T15:55:17;26.17;;;12.02;;
60344;SDS011;46188;52.324;8.032;2022-12-11T15:57:44;24.08;;;11.35;;
60344;SDS011;46188;52.324;8.032;2022-12-11T16:00:14;22.58;;;10.68;;
60344;SDS011;46188;52.324;8.032;2022-12-11T16:02:41;25.05;;;11.27;;
60344;SDS011;46188;52.324;8.032;2022-12-11T16:05:07;26.08;;;11.57;;
60344;SDS011;46188;52.324;8.032;2022-12-11T16:07:33;29.38;;;11.25;;
60344;SDS011;46188;52.324;8.032;2022-12-11T16:09:58;27.25;;;12.00;;
60344;SDS011;46188;52.324;8.032;2022-12-11T16:12:24;26.58;;;11.60;;
60344;SDS011;46188;52.324;8.032;2022-12-11T16:14:49;26.30;;;11.75;;
60344;SDS011;46188;52.324;8.032;2022-12-11T16:17:15;29.92;;;10.82;;
60344;SDS011;46188;52.324;8.032;2022-12-11T16:19:41;25.85;;;11.38;;
60344;SDS011;46188;52.324;8.032;2022-12-11T16:22:08;26.48;;;10.98;;